Terminal Aerodrome Forecast
Issued by NWS

Home | Current Version | Previous Version | Text Only | Print | Product List | Glossary On
Versions: 1 2 3 4 5 6 7 8 9 10 11 12 13 14 15 16
000
FTUS44 KLZK 192018 AAA
TAFHRO
TAF AMD
KHRO 192018Z 1920/2018 16012G20KT P6SM SKC
     FM200000 14007KT P6SM OVC040
     FM200300 14007KT 5SM BR OVC030
     FM200600 14009KT 3SM BR OVC009=

USA.gov is the U.S. government's official web portal to all federal, state and local government web resources and services.